createdAt,value
2018-04-22T00:00:06.569Z,0.00
2018-04-22T00:01:07.066Z,0.00
2018-04-22T00:02:07.069Z,0.00
2018-04-22T00:03:06.317Z,0.00
2018-04-22T00:04:06.247Z,0.00
2018-04-22T00:05:06.172Z,0.00
2018-04-22T00:06:06.105Z,0.00
2018-04-22T00:07:06.028Z,0.00
2018-04-22T00:08:05.954Z,0.00
2018-04-22T00:09:05.894Z,0.00
2018-04-22T00:10:05.818Z,0.00
2018-04-22T00:11:07.069Z,0.00
2018-04-22T00:12:05.671Z,0.00
2018-04-22T00:13:05.591Z,0.00
2018-04-22T00:14:05.519Z,0.00
2018-04-22T00:15:05.464Z,0.00
2018-04-22T00:16:05.375Z,0.00
2018-04-22T00:17:05.311Z,0.00
2018-04-22T00:18:05.227Z,0.00
2018-04-22T00:19:05.155Z,0.00
2018-04-22T00:20:05.085Z,0.00
2018-04-22T00:21:05.020Z,0.00
2018-04-22T00:22:04.936Z,0.00
2018-04-22T00:23:04.861Z,0.00
2018-04-22T00:24:04.793Z,0.00
2018-04-22T00:25:04.718Z,0.00
2018-04-22T00:26:04.643Z,0.00
2018-04-22T00:27:05.077Z,0.00
2018-04-22T00:28:04.522Z,0.00
2018-04-22T00:29:04.425Z,0.00
2018-04-22T00:30:04.353Z,0.00
2018-04-22T00:31:04.281Z,0.00
2018-04-22T00:32:04.215Z,0.00
2018-04-22T00:33:05.574Z,0.00
2018-04-22T00:34:04.062Z,0.00
2018-04-22T00:35:03.991Z,0.00
2018-04-22T00:36:03.932Z,0.00
2018-04-22T00:37:03.857Z,0.00
2018-04-22T00:38:04.577Z,0.00
2018-04-22T00:39:03.696Z,0.00
2018-04-22T00:40:03.625Z,0.00
2018-04-22T00:41:03.559Z,0.00
2018-04-22T00:42:03.477Z,0.00
2018-04-22T00:43:03.404Z,0.00
2018-04-22T00:44:03.334Z,0.00
2018-04-22T00:45:04.082Z,0.00
2018-04-22T00:46:03.187Z,0.00
2018-04-22T00:47:03.113Z,0.00
2018-04-22T00:48:03.053Z,0.00
2018-04-22T00:49:02.972Z,0.00
2018-04-22T00:50:02.897Z,0.00
2018-04-22T00:51:02.823Z,0.00
2018-04-22T00:52:02.750Z,0.00
2018-04-22T00:53:02.707Z,0.00
2018-04-22T00:54:02.603Z,0.00
2018-04-22T00:55:02.529Z,0.00
2018-04-22T00:56:03.085Z,0.00
2018-04-22T00:57:02.383Z,0.00
2018-04-22T00:58:02.312Z,0.00
2018-04-22T00:59:02.245Z,0.00
2018-04-22T01:00:02.167Z,0.00
2018-04-22T01:01:02.094Z,0.00
2018-04-22T01:02:02.020Z,0.00
2018-04-22T01:03:01.945Z,0.00
2018-04-22T01:04:01.872Z,0.00
2018-04-22T01:05:01.807Z,0.00
2018-04-22T01:06:01.731Z,0.00
2018-04-22T01:07:01.674Z,0.00
2018-04-22T01:08:02.088Z,0.00
2018-04-22T01:09:02.089Z,0.00
2018-04-22T01:10:01.433Z,0.00
2018-04-22T01:11:01.362Z,0.00
2018-04-22T01:12:01.289Z,0.00
2018-04-22T01:13:01.216Z,0.00
2018-04-22T01:14:01.143Z,0.00
2018-04-22T01:15:01.068Z,0.00
2018-04-22T01:16:00.998Z,0.00
2018-04-22T01:17:00.922Z,0.00
2018-04-22T01:18:00.856Z,0.00
2018-04-22T01:19:00.798Z,0.00
2018-04-22T01:20:00.701Z,0.00
2018-04-22T01:21:00.637Z,0.00
2018-04-22T01:22:00.561Z,0.00
2018-04-22T01:23:00.485Z,0.00
2018-04-22T01:24:00.415Z,0.00
2018-04-22T01:25:01.094Z,0.00
2018-04-22T01:26:00.268Z,0.00
2018-04-22T01:27:00.197Z,0.00
2018-04-22T01:28:00.121Z,0.00
2018-04-22T01:29:00.048Z,0.00
2018-04-22T01:29:59.980Z,0.00
2018-04-22T01:30:59.900Z,0.00
2018-04-22T01:32:00.614Z,0.00
2018-04-22T01:32:59.754Z,0.00
2018-04-22T01:33:59.686Z,0.00
2018-04-22T01:34:59.609Z,0.00
2018-04-22T01:35:59.533Z,0.00
2018-04-22T01:36:59.464Z,0.00
2018-04-22T01:37:59.388Z,0.00
2018-04-22T01:38:59.316Z,0.00
2018-04-22T01:39:59.242Z,0.00
2018-04-22T01:40:59.168Z,0.00
2018-04-22T01:41:59.098Z,0.00
2018-04-22T01:42:59.022Z,0.00
2018-04-22T01:43:58.951Z,0.00
2018-04-22T01:44:58.876Z,0.00
2018-04-22T01:45:58.807Z,0.00
2018-04-22T01:46:58.725Z,0.00
2018-04-22T01:47:58.664Z,0.00
2018-04-22T01:48:58.579Z,0.00
2018-04-22T01:49:59.604Z,0.00
2018-04-22T01:50:58.441Z,0.00
2018-04-22T01:51:58.362Z,0.00
2018-04-22T01:52:58.310Z,0.00
2018-04-22T01:53:58.213Z,0.00
2018-04-22T01:54:59.103Z,0.00
2018-04-22T01:55:58.617Z,0.00
2018-04-22T01:56:57.996Z,0.00
2018-04-22T01:57:57.922Z,0.00
2018-04-22T01:58:57.845Z,0.00
2018-04-22T01:59:57.772Z,0.00
2018-04-22T02:00:57.736Z,0.00
2018-04-22T02:01:57.626Z,0.00
2018-04-22T02:02:57.550Z,0.00
2018-04-22T02:03:57.478Z,0.00
2018-04-22T02:04:57.410Z,0.00
2018-04-22T02:05:57.330Z,0.00
2018-04-22T02:06:57.259Z,0.00
2018-04-22T02:07:57.182Z,0.00
2018-04-22T02:08:57.108Z,0.00
2018-04-22T02:09:57.035Z,0.00
2018-04-22T02:10:56.960Z,0.00
2018-04-22T02:11:56.956Z,0.00
2018-04-22T02:12:56.820Z,0.00
2018-04-22T02:13:56.740Z,0.00
2018-04-22T02:14:56.668Z,0.00
2018-04-22T02:15:56.597Z,0.00
2018-04-22T02:16:56.521Z,0.00
2018-04-22T02:17:56.446Z,0.00
2018-04-22T02:18:56.371Z,0.00
2018-04-22T02:19:56.306Z,0.00
2018-04-22T02:20:56.225Z,0.00
2018-04-22T02:21:56.150Z,0.00
2018-04-22T02:22:56.078Z,0.00
2018-04-22T02:23:56.002Z,0.00
2018-04-22T02:24:55.931Z,0.00
2018-04-22T02:25:55.859Z,0.00
2018-04-22T02:26:55.785Z,0.00
2018-04-22T02:27:55.712Z,0.00
2018-04-22T02:28:55.636Z,0.00
2018-04-22T02:29:55.564Z,0.00
2018-04-22T02:30:55.500Z,0.00
2018-04-22T02:31:55.414Z,0.00
2018-04-22T02:32:55.343Z,0.00
2018-04-22T02:33:55.290Z,0.00
2018-04-22T02:34:55.191Z,0.00
2018-04-22T02:35:55.118Z,0.00
2018-04-22T02:36:55.046Z,0.00
2018-04-22T02:37:54.990Z,0.00
2018-04-22T02:38:54.897Z,0.00
2018-04-22T02:39:54.826Z,0.00
2018-04-22T02:40:54.750Z,0.00
2018-04-22T02:41:54.675Z,0.00
2018-04-22T02:42:54.606Z,0.00
2018-04-22T02:43:54.529Z,0.00
2018-04-22T02:44:54.467Z,0.00
2018-04-22T02:45:54.383Z,0.00
2018-04-22T02:46:54.309Z,0.00
2018-04-22T02:47:54.232Z,0.00
2018-04-22T02:48:54.159Z,0.00
2018-04-22T02:49:54.084Z,0.00
2018-04-22T02:50:54.010Z,0.00
2018-04-22T02:51:53.937Z,0.00
2018-04-22T02:52:53.869Z,0.00
2018-04-22T02:53:53.789Z,0.00
2018-04-22T02:54:53.719Z,0.00
2018-04-22T02:55:53.669Z,0.00
2018-04-22T02:56:53.569Z,0.00
2018-04-22T02:57:53.498Z,0.00
2018-04-22T02:58:53.417Z,0.00
2018-04-22T02:59:53.356Z,0.00
2018-04-22T03:00:53.271Z,0.00
2018-04-22T03:01:53.199Z,0.00
2018-04-22T03:02:53.123Z,0.00
2018-04-22T03:03:53.056Z,0.00
2018-04-22T03:04:52.980Z,0.00
2018-04-22T03:05:52.909Z,0.00
2018-04-22T03:06:52.828Z,0.00
2018-04-22T03:07:52.754Z,0.00
2018-04-22T03:08:52.681Z,0.00
2018-04-22T03:09:52.605Z,0.00
2018-04-22T03:10:52.532Z,0.00
2018-04-22T03:11:52.457Z,0.00
2018-04-22T03:12:52.384Z,0.00
2018-04-22T03:13:52.309Z,0.00
2018-04-22T03:14:52.239Z,0.00
2018-04-22T03:15:52.165Z,0.00
2018-04-22T03:16:52.092Z,0.00
2018-04-22T03:17:52.025Z,0.00
2018-04-22T03:18:51.940Z,0.00
2018-04-22T03:19:51.880Z,0.00
2018-04-22T03:20:51.794Z,0.00
2018-04-22T03:21:51.718Z,0.00
2018-04-22T03:22:51.654Z,0.00
2018-04-22T03:23:51.572Z,0.00
2018-04-22T03:24:51.497Z,0.00
2018-04-22T03:25:51.467Z,0.00
2018-04-22T03:26:51.348Z,0.00
2018-04-22T03:27:51.273Z,0.00
2018-04-22T03:28:51.201Z,0.00
2018-04-22T03:29:51.129Z,0.00
2018-04-22T03:30:51.056Z,0.00
2018-04-22T03:31:50.979Z,0.00
2018-04-22T03:32:50.959Z,0.00
2018-04-22T03:33:50.833Z,0.00
2018-04-22T03:34:50.765Z,0.00
2018-04-22T03:35:50.679Z,0.00
2018-04-22T03:36:50.608Z,0.00
2018-04-22T03:37:50.533Z,0.00
2018-04-22T03:38:50.462Z,0.00
2018-04-22T03:39:50.387Z,0.00
2018-04-22T03:40:50.322Z,0.00
2018-04-22T03:41:50.242Z,0.00
2018-04-22T03:42:50.165Z,0.00
2018-04-22T03:43:50.090Z,0.00
2018-04-22T03:44:50.014Z,0.00
2018-04-22T03:45:49.942Z,0.00
2018-04-22T03:46:49.868Z,0.00
2018-04-22T03:47:49.797Z,0.00
2018-04-22T03:48:49.731Z,0.00
2018-04-22T03:49:49.645Z,0.00
2018-04-22T03:50:49.590Z,0.00
2018-04-22T03:51:49.499Z,0.00
2018-04-22T03:52:49.423Z,0.00
2018-04-22T03:53:49.357Z,0.00
2018-04-22T03:54:49.299Z,0.00
2018-04-22T03:55:49.202Z,0.00
2018-04-22T03:56:49.128Z,0.00
2018-04-22T03:57:49.052Z,0.00
2018-04-22T03:58:48.979Z,0.00
2018-04-22T03:59:48.902Z,0.00
2018-04-22T04:00:48.841Z,0.00
2018-04-22T04:01:48.753Z,0.00
2018-04-22T04:02:48.678Z,0.00
2018-04-22T04:03:48.605Z,0.00
2018-04-22T04:04:48.535Z,0.00
2018-04-22T04:05:48.458Z,0.00
2018-04-22T04:06:48.384Z,0.00
2018-04-22T04:07:48.315Z,5.63
2018-04-22T04:08:48.235Z,5.63
2018-04-22T04:09:48.162Z,5.63
2018-04-22T04:10:48.098Z,5.63
2018-04-22T04:11:48.010Z,5.63
2018-04-22T04:12:47.937Z,5.63
2018-04-22T04:13:47.863Z,5.63
2018-04-22T04:14:47.789Z,11.25
2018-04-22T04:15:47.715Z,11.25
2018-04-22T04:16:47.643Z,11.25
2018-04-22T04:17:47.569Z,11.25
2018-04-22T04:18:47.489Z,11.25
2018-04-22T04:19:47.415Z,11.25
2018-04-22T04:20:47.347Z,16.88
2018-04-22T04:21:47.263Z,16.88
2018-04-22T04:22:47.192Z,16.88
2018-04-22T04:23:47.117Z,16.88
2018-04-22T04:24:47.047Z,16.88
2018-04-22T04:25:46.969Z,16.88
2018-04-22T04:26:46.897Z,22.50
2018-04-22T04:27:46.823Z,22.50
2018-04-22T04:28:46.745Z,22.50
2018-04-22T04:29:46.671Z,22.50
2018-04-22T04:30:46.630Z,22.50
2018-04-22T04:31:46.525Z,28.13
2018-04-22T04:32:46.448Z,28.13
2018-04-22T04:33:46.371Z,28.13
2018-04-22T04:34:46.298Z,28.13
2018-04-22T04:35:46.226Z,28.13
2018-04-22T04:36:46.150Z,33.75
2018-04-22T04:37:46.074Z,33.75
2018-04-22T04:40:28.672Z,33.75
2018-04-22T04:41:28.509Z,39.38
2018-04-22T04:42:28.439Z,39.38
2018-04-22T04:43:28.404Z,39.38
2018-04-22T04:44:28.282Z,39.38
2018-04-22T04:45:28.208Z,45.00
2018-04-22T04:46:28.138Z,45.00
2018-04-22T04:47:28.061Z,45.00
2018-04-22T04:48:27.997Z,45.00
2018-04-22T04:49:27.912Z,45.00
2018-04-22T04:50:27.840Z,50.63
2018-04-22T04:51:27.761Z,50.63
2018-04-22T04:52:27.688Z,50.63
2018-04-22T04:53:27.613Z,50.63
2018-04-22T04:54:27.536Z,50.63
2018-04-22T04:55:27.463Z,56.25
2018-04-22T04:56:27.396Z,56.25
2018-04-22T04:57:27.315Z,56.25
2018-04-22T04:58:27.238Z,56.25
2018-04-22T04:59:27.164Z,61.88
2018-04-22T05:00:27.091Z,61.88
2018-04-22T05:01:27.017Z,61.88
2018-04-22T05:02:26.939Z,61.88
2018-04-22T05:03:26.865Z,61.88
2018-04-22T05:04:26.793Z,67.50
2018-04-22T05:05:26.721Z,67.50
2018-04-22T05:06:26.653Z,67.50
2018-04-22T05:07:26.567Z,73.13
2018-04-22T05:08:26.495Z,73.13
2018-04-22T05:09:26.416Z,73.13
2018-04-22T05:10:26.341Z,73.13
2018-04-22T05:11:26.270Z,73.13
2018-04-22T05:12:26.206Z,73.13
2018-04-22T05:13:26.144Z,73.13
2018-04-22T05:14:26.044Z,73.13
2018-04-22T05:15:25.972Z,78.75
2018-04-22T05:16:25.912Z,78.75
2018-04-22T05:17:25.823Z,78.75
2018-04-22T05:18:25.745Z,84.38
2018-04-22T05:19:25.671Z,84.38
2018-04-22T05:20:25.595Z,84.38
2018-04-22T05:21:25.543Z,84.38
2018-04-22T05:22:25.461Z,84.38
2018-04-22T05:23:25.374Z,90.00
2018-04-22T05:24:25.341Z,90.00
2018-04-22T05:25:25.232Z,90.00
2018-04-22T05:26:25.151Z,95.63
2018-04-22T05:27:25.073Z,95.63
2018-04-22T05:28:25.000Z,95.63
2018-04-22T05:29:24.935Z,95.63
2018-04-22T05:30:24.870Z,101.25
2018-04-22T05:31:24.777Z,101.25
2018-04-22T05:32:24.717Z,101.25
2018-04-22T05:33:24.631Z,101.25
2018-04-22T05:34:24.560Z,106.88
2018-04-22T05:35:24.481Z,106.88
2018-04-22T05:36:24.447Z,106.88
2018-04-22T05:37:24.330Z,106.88
2018-04-22T05:38:24.255Z,106.88
2018-04-22T05:39:24.196Z,112.50
2018-04-22T05:40:24.105Z,112.50
2018-04-22T05:41:24.032Z,112.50
2018-04-22T05:42:23.977Z,118.13
2018-04-22T05:43:23.881Z,118.13
2018-04-22T05:44:23.817Z,123.75
2018-04-22T05:45:24.044Z,118.13
2018-04-22T05:46:23.665Z,123.75
2018-04-22T05:47:23.589Z,129.38
2018-04-22T05:48:23.512Z,123.75
2018-04-22T05:49:23.443Z,123.75
2018-04-22T05:50:23.362Z,123.75
2018-04-22T05:51:23.295Z,123.75
2018-04-22T05:52:23.218Z,123.75
2018-04-22T05:53:23.140Z,123.75
2018-04-22T05:54:23.071Z,123.75
2018-04-22T05:55:22.989Z,123.75
2018-04-22T05:56:22.918Z,123.75
2018-04-22T05:57:22.842Z,129.38
2018-04-22T05:58:22.771Z,129.38
2018-04-22T05:59:22.698Z,129.38
2018-04-22T06:00:22.638Z,129.38
2018-04-22T06:01:22.548Z,129.38
2018-04-22T06:02:22.472Z,135.00
2018-04-22T06:03:22.406Z,135.00
2018-04-22T06:04:22.326Z,135.00
2018-04-22T06:05:22.258Z,135.00
2018-04-22T06:06:22.193Z,135.00
2018-04-22T06:07:22.102Z,140.63
2018-04-22T06:08:22.029Z,140.63
2018-04-22T06:09:21.955Z,140.63
2018-04-22T06:10:21.897Z,140.63
2018-04-22T06:11:21.809Z,140.63
2018-04-22T06:12:21.733Z,146.25
2018-04-22T06:13:21.664Z,140.63
2018-04-22T06:14:21.596Z,146.25
2018-04-22T06:15:21.521Z,146.25
2018-04-22T06:16:21.443Z,146.25
2018-04-22T06:17:21.413Z,151.88
2018-04-22T06:18:21.296Z,146.25
2018-04-22T06:19:21.220Z,146.25
2018-04-22T06:20:21.145Z,146.25
2018-04-22T06:21:21.071Z,151.88
2018-04-22T06:22:20.997Z,151.88
2018-04-22T06:23:20.925Z,151.88
2018-04-22T06:24:20.853Z,151.88
2018-04-22T06:25:20.776Z,151.88
2018-04-22T06:26:20.705Z,151.88
2018-04-22T06:27:20.633Z,157.50
2018-04-22T06:28:20.587Z,157.50
2018-04-22T06:29:20.484Z,157.50
2018-04-22T06:30:20.423Z,157.50
2018-04-22T06:31:20.336Z,157.50
2018-04-22T06:32:20.262Z,157.50
2018-04-22T06:33:20.193Z,157.50
2018-04-22T06:34:20.130Z,163.13
2018-04-22T06:35:20.051Z,163.13
2018-04-22T06:36:19.970Z,163.13
2018-04-22T06:37:19.898Z,163.13
2018-04-22T06:38:19.823Z,163.13
2018-04-22T06:39:19.767Z,163.13
2018-04-22T06:40:19.685Z,163.13
2018-04-22T06:41:19.606Z,168.75
2018-04-22T06:42:19.532Z,168.75
2018-04-22T06:43:19.455Z,168.75
2018-04-22T06:44:19.390Z,168.75
2018-04-22T06:45:19.315Z,168.75
2018-04-22T06:46:19.240Z,168.75
2018-04-22T06:47:19.168Z,168.75
2018-04-22T06:48:19.093Z,168.75
2018-04-22T06:49:19.029Z,168.75
2018-04-22T06:50:18.946Z,174.38
2018-04-22T06:51:18.875Z,174.38
2018-04-22T06:52:18.800Z,174.38
2018-04-22T06:53:18.751Z,174.38
2018-04-22T06:54:18.655Z,174.38
2018-04-22T06:55:18.582Z,174.38
2018-04-22T06:56:18.514Z,174.38
2018-04-22T06:57:18.444Z,180.00
2018-04-22T06:58:18.364Z,180.00
2018-04-22T06:59:18.309Z,180.00
2018-04-22T07:00:18.220Z,180.00
2018-04-22T07:01:18.146Z,180.00
2018-04-22T07:02:18.078Z,180.00
2018-04-22T07:03:18.008Z,180.00
2018-04-22T07:04:17.930Z,180.00
2018-04-22T07:05:17.859Z,180.00
2018-04-22T07:06:17.786Z,185.63
2018-04-22T07:07:17.711Z,185.63
2018-04-22T07:08:17.638Z,185.63
2018-04-22T07:09:17.568Z,185.63
2018-04-22T07:10:17.493Z,185.63
2018-04-22T07:11:17.421Z,185.63
2018-04-22T07:12:17.349Z,185.63
2018-04-22T07:13:17.275Z,185.63
2018-04-22T07:14:17.203Z,185.63
2018-04-22T07:15:17.132Z,185.63
2018-04-22T07:16:17.059Z,185.63
2018-04-22T07:17:16.989Z,185.63
2018-04-22T07:18:16.920Z,185.63
2018-04-22T07:19:16.851Z,185.63
2018-04-22T07:20:16.842Z,191.25
2018-04-22T07:21:16.698Z,191.25
2018-04-22T07:22:16.625Z,191.25
2018-04-22T07:23:16.554Z,191.25
2018-04-22T07:24:16.487Z,191.25
2018-04-22T07:25:16.410Z,191.25
2018-04-22T07:26:16.340Z,191.25
2018-04-22T07:27:16.270Z,191.25
2018-04-22T07:28:16.192Z,191.25
2018-04-22T07:29:16.178Z,191.25
2018-04-22T07:30:16.048Z,191.25
2018-04-22T07:31:15.975Z,191.25
2018-04-22T07:32:15.947Z,191.25
2018-04-22T07:33:15.835Z,191.25
2018-04-22T07:34:15.760Z,191.25
2018-04-22T07:35:15.690Z,191.25
2018-04-22T07:36:15.621Z,191.25
2018-04-22T07:37:15.544Z,191.25
2018-04-22T07:38:15.479Z,191.25
2018-04-22T07:39:15.401Z,191.25
2018-04-22T07:40:15.333Z,191.25
2018-04-22T07:41:15.301Z,196.88
2018-04-22T07:42:15.186Z,196.88
2018-04-22T07:43:15.114Z,196.88
2018-04-22T07:44:15.045Z,196.88
2018-04-22T07:45:14.972Z,196.88
2018-04-22T07:46:14.901Z,196.88
2018-04-22T07:47:14.827Z,196.88
2018-04-22T07:48:14.760Z,202.50
2018-04-22T07:49:14.683Z,202.50
2018-04-22T07:50:14.618Z,202.50
2018-04-22T07:51:14.542Z,202.50
2018-04-22T07:52:14.478Z,202.50
2018-04-22T07:53:14.406Z,202.50
2018-04-22T07:54:14.324Z,202.50
2018-04-22T07:55:14.251Z,202.50
2018-04-22T07:56:14.182Z,202.50
2018-04-22T07:57:14.110Z,202.50
2018-04-22T07:58:14.042Z,202.50
2018-04-22T07:59:13.973Z,202.50
2018-04-22T08:00:13.898Z,202.50
2018-04-22T08:01:13.828Z,202.50
2018-04-22T08:02:13.783Z,208.13
2018-04-22T08:03:13.681Z,208.13
2018-04-22T08:04:13.609Z,208.13
2018-04-22T08:05:13.540Z,208.13
2018-04-22T08:06:13.467Z,208.13
2018-04-22T08:07:13.406Z,213.75
2018-04-22T08:08:13.329Z,213.75
2018-04-22T08:09:13.255Z,213.75
2018-04-22T08:10:13.184Z,213.75
2018-04-22T08:11:13.111Z,213.75
2018-04-22T08:12:13.043Z,213.75
2018-04-22T08:13:12.970Z,213.75
2018-04-22T08:14:12.899Z,213.75
2018-04-22T08:15:12.825Z,213.75
2018-04-22T08:16:12.766Z,213.75
2018-04-22T08:17:12.685Z,213.75
2018-04-22T08:18:12.612Z,213.75
2018-04-22T08:19:12.551Z,219.38
2018-04-22T08:20:12.471Z,219.38
2018-04-22T08:21:12.402Z,219.38
2018-04-22T08:22:12.329Z,219.38
2018-04-22T08:23:12.260Z,219.38
2018-04-22T08:24:12.196Z,219.38
2018-04-22T08:25:12.118Z,219.38
2018-04-22T08:26:12.045Z,219.38
2018-04-22T08:27:11.974Z,219.38
2018-04-22T08:28:11.946Z,219.38
2018-04-22T08:29:11.835Z,219.38
2018-04-22T08:30:11.768Z,225.00
2018-04-22T08:31:11.691Z,225.00
2018-04-22T08:32:11.627Z,225.00
2018-04-22T08:33:11.554Z,225.00
2018-04-22T08:34:11.477Z,225.00
2018-04-22T08:35:11.447Z,230.63
2018-04-22T08:36:11.343Z,230.63
2018-04-22T08:37:11.268Z,230.63
2018-04-22T08:38:11.204Z,236.25
2018-04-22T08:39:11.126Z,230.63
2018-04-22T08:40:11.056Z,230.63
2018-04-22T08:41:10.987Z,230.63
2018-04-22T08:42:10.913Z,230.63
2018-04-22T08:43:10.870Z,236.25
2018-04-22T08:44:10.775Z,236.25
2018-04-22T08:45:10.707Z,236.25
2018-04-22T08:46:10.645Z,236.25
2018-04-22T08:47:10.574Z,236.25
2018-04-22T08:48:10.510Z,236.25
2018-04-22T08:49:10.427Z,236.25
2018-04-22T08:50:10.350Z,236.25
2018-04-22T08:51:10.297Z,236.25
2018-04-22T08:52:10.224Z,241.88
2018-04-22T08:53:10.141Z,241.88
2018-04-22T08:54:10.067Z,241.88
2018-04-22T08:55:10.008Z,247.50
2018-04-22T08:56:09.932Z,247.50
2018-04-22T08:57:09.860Z,253.13
2018-04-22T08:58:09.788Z,253.13
2018-04-22T08:59:09.728Z,258.75
2018-04-22T09:00:09.678Z,253.13
2018-04-22T09:01:09.581Z,258.75
2018-04-22T09:02:09.544Z,264.38
2018-04-22T09:03:09.437Z,270.00
2018-04-22T09:04:09.369Z,275.63
2018-04-22T09:05:09.299Z,286.88
2018-04-22T09:06:09.293Z,292.50
2018-04-22T09:07:09.158Z,303.75
2018-04-22T09:08:09.087Z,309.38
2018-04-22T09:09:09.026Z,309.38
2018-04-22T09:10:08.952Z,315.00
2018-04-22T09:11:08.878Z,309.38
2018-04-22T09:12:08.812Z,309.38
2018-04-22T09:13:08.747Z,303.75
2018-04-22T09:14:08.669Z,309.38
2018-04-22T09:15:08.600Z,298.13
2018-04-22T09:16:08.539Z,286.88
2018-04-22T09:17:08.460Z,303.75
2018-04-22T09:18:08.394Z,281.25
2018-04-22T09:19:08.322Z,292.50
2018-04-22T09:20:08.254Z,286.88
2018-04-22T09:21:08.183Z,241.88
2018-04-22T09:22:08.113Z,264.38
2018-04-22T09:23:08.044Z,286.88
2018-04-22T09:24:07.974Z,281.25
2018-04-22T09:25:07.907Z,286.88
2018-04-22T09:26:07.835Z,281.25
2018-04-22T09:27:07.763Z,286.88
2018-04-22T09:28:07.695Z,270.00
2018-04-22T09:29:07.630Z,281.25
2018-04-22T09:30:07.559Z,286.88
2018-04-22T09:31:07.488Z,264.38
2018-04-22T09:32:07.436Z,258.75
2018-04-22T09:33:07.402Z,286.88
2018-04-22T09:34:07.280Z,292.50
2018-04-22T09:35:07.209Z,292.50
2018-04-22T09:36:07.144Z,292.50
2018-04-22T09:37:07.075Z,292.50
2018-04-22T09:38:07.003Z,292.50
2018-04-22T09:39:06.936Z,292.50
2018-04-22T09:40:06.867Z,286.88
2018-04-22T09:41:06.796Z,286.88
2018-04-22T09:42:06.727Z,292.50
2018-04-22T09:43:06.692Z,286.88
2018-04-22T09:44:06.605Z,286.88
2018-04-22T09:45:06.522Z,286.88
2018-04-22T09:46:06.450Z,292.50
2018-04-22T09:47:06.381Z,292.50
2018-04-22T09:48:06.310Z,292.50
2018-04-22T09:49:06.243Z,292.50
2018-04-22T09:50:06.174Z,292.50
2018-04-22T09:51:06.104Z,292.50
2018-04-22T09:52:06.036Z,298.13
2018-04-22T09:53:05.969Z,298.13
2018-04-22T09:54:05.900Z,303.75
2018-04-22T09:55:05.828Z,303.75
2018-04-22T09:56:05.763Z,303.75
2018-04-22T09:57:05.692Z,309.38
2018-04-22T09:58:05.680Z,309.38
2018-04-22T09:59:05.552Z,315.00
2018-04-22T10:00:05.484Z,315.00
2018-04-22T10:01:05.416Z,320.63
2018-04-22T10:02:05.345Z,320.63
2018-04-22T10:03:05.283Z,326.25
2018-04-22T10:04:05.208Z,326.25
2018-04-22T10:05:05.141Z,326.25
2018-04-22T10:06:05.071Z,331.88
2018-04-22T10:07:05.012Z,331.88
2018-04-22T10:08:04.934Z,337.50
2018-04-22T10:09:04.870Z,337.50
2018-04-22T10:10:04.795Z,337.50
2018-04-22T10:11:04.728Z,343.13
2018-04-22T10:12:04.658Z,343.13
2018-04-22T10:13:04.607Z,348.75
2018-04-22T10:14:04.521Z,348.75
2018-04-22T10:15:04.452Z,348.75
2018-04-22T10:16:04.385Z,354.38
2018-04-22T10:17:04.316Z,360.00
2018-04-22T10:18:04.245Z,365.63
2018-04-22T10:19:04.179Z,371.25
2018-04-22T10:20:04.109Z,376.88
2018-04-22T10:21:04.043Z,376.88
2018-04-22T10:22:03.975Z,382.50
2018-04-22T10:23:03.906Z,382.50
2018-04-22T10:24:03.837Z,388.13
2018-04-22T10:25:03.769Z,393.75
2018-04-22T10:26:03.704Z,393.75
2018-04-22T10:27:03.632Z,399.38
2018-04-22T10:28:03.577Z,399.38
2018-04-22T10:29:03.497Z,405.00
2018-04-22T10:30:03.428Z,405.00
2018-04-22T10:31:03.359Z,410.63
2018-04-22T10:32:03.293Z,410.63
2018-04-22T10:33:03.224Z,421.88
2018-04-22T10:34:03.156Z,438.75
2018-04-22T10:35:03.093Z,450.00
2018-04-22T10:36:03.051Z,461.25
2018-04-22T10:37:02.953Z,461.25
2018-04-22T10:38:02.883Z,444.38
2018-04-22T10:39:02.816Z,450.00
2018-04-22T10:40:02.763Z,427.50
2018-04-22T10:41:02.687Z,466.88
2018-04-22T10:42:02.677Z,450.00
2018-04-22T10:43:02.546Z,410.63
2018-04-22T10:44:02.480Z,433.13
2018-04-22T10:45:02.413Z,427.50
2018-04-22T10:46:02.346Z,433.13
2018-04-22T10:47:02.279Z,438.75
2018-04-22T10:48:02.209Z,438.75
2018-04-22T10:49:02.140Z,433.13
2018-04-22T10:50:02.075Z,433.13
2018-04-22T10:51:02.020Z,433.13
2018-04-22T10:52:01.944Z,438.75
2018-04-22T10:53:01.881Z,433.13
2018-04-22T10:54:01.806Z,433.13
2018-04-22T10:55:01.829Z,433.13
2018-04-22T10:56:01.673Z,433.13
2018-04-22T10:57:01.621Z,438.75
2018-04-22T10:58:01.615Z,438.75
2018-04-22T10:59:01.471Z,450.00
2018-04-22T11:00:01.404Z,444.38
2018-04-22T11:01:01.337Z,450.00
2018-04-22T11:02:01.279Z,450.00
2018-04-22T11:03:01.212Z,450.00
2018-04-22T11:04:01.139Z,455.63
2018-04-22T11:05:01.107Z,461.25
2018-04-22T11:06:01.002Z,461.25
2018-04-22T11:07:00.936Z,461.25
2018-04-22T11:08:00.867Z,466.88
2018-04-22T11:09:00.804Z,472.50
2018-04-22T11:10:00.738Z,472.50
2018-04-22T11:11:01.315Z,472.50
2018-04-22T11:12:00.601Z,472.50
2018-04-22T11:13:00.535Z,483.75
2018-04-22T11:14:00.470Z,478.13
2018-04-22T11:15:00.405Z,478.13
2018-04-22T11:16:00.335Z,483.75
2018-04-22T11:17:00.271Z,478.13
2018-04-22T11:18:02.751Z,483.75
2018-04-22T11:19:00.137Z,483.75
2018-04-22T11:20:00.071Z,483.75
2018-04-22T11:21:00.004Z,489.38
2018-04-22T11:21:59.939Z,489.38
2018-04-22T11:22:59.872Z,489.38
2018-04-22T11:23:59.803Z,500.63
2018-04-22T11:24:59.739Z,495.00
2018-04-22T11:25:59.680Z,500.63
2018-04-22T11:26:59.606Z,500.63
2018-04-22T11:27:59.540Z,500.63
2018-04-22T11:28:59.472Z,511.88
2018-04-22T11:29:59.406Z,506.25
2018-04-22T11:30:59.339Z,506.25
2018-04-22T11:31:59.275Z,506.25
2018-04-22T11:32:59.213Z,517.50
2018-04-22T11:33:59.765Z,517.50
2018-04-22T11:34:59.075Z,523.13
2018-04-22T11:35:59.011Z,528.75
2018-04-22T11:36:58.957Z,534.38
2018-04-22T11:37:58.878Z,551.25
2018-04-22T11:38:58.856Z,556.88
2018-04-22T11:39:58.746Z,562.50
2018-04-22T11:40:58.679Z,573.75
2018-04-22T11:41:58.627Z,568.13
2018-04-22T11:42:58.552Z,562.50
2018-04-22T11:43:58.482Z,556.88
2018-04-22T11:44:58.420Z,551.25
2018-04-22T11:45:58.352Z,551.25
2018-04-22T11:46:58.288Z,556.88
2018-04-22T11:47:58.223Z,562.50
2018-04-22T11:48:58.155Z,568.13
2018-04-22T11:49:58.091Z,568.13
2018-04-22T11:50:58.029Z,562.50
2018-04-22T11:51:57.961Z,326.25
2018-04-22T11:52:57.892Z,427.50
2018-04-22T11:53:57.840Z,562.50
2018-04-22T11:54:57.769Z,579.38
2018-04-22T11:55:57.697Z,579.38
2018-04-22T11:56:57.633Z,585.00
2018-04-22T11:57:57.570Z,585.00
2018-04-22T11:58:57.501Z,601.88
2018-04-22T11:59:57.485Z,601.88
2018-04-22T12:00:57.370Z,607.50
2018-04-22T12:01:57.304Z,618.75
2018-04-22T12:02:57.238Z,618.75
2018-04-22T12:03:57.174Z,635.63
2018-04-22T12:04:57.110Z,635.63
2018-04-22T12:05:57.043Z,641.25
2018-04-22T12:06:56.980Z,646.88
2018-04-22T12:07:56.913Z,652.50
2018-04-22T12:08:56.855Z,658.13
2018-04-22T12:09:56.786Z,663.75
2018-04-22T12:10:56.735Z,669.38
2018-04-22T12:11:56.656Z,663.75
2018-04-22T12:12:56.593Z,691.88
2018-04-22T12:13:56.525Z,714.38
2018-04-22T12:14:56.464Z,753.75
2018-04-22T12:15:56.397Z,1046.25
2018-04-22T12:16:56.338Z,2025.00
2018-04-22T12:17:56.269Z,2953.13
2018-04-22T12:18:56.226Z,3296.25
2018-04-22T12:19:56.143Z,3346.88
2018-04-22T12:20:56.083Z,1485.00
2018-04-22T12:21:56.019Z,556.88
2018-04-22T12:22:55.959Z,461.25
2018-04-22T12:23:55.898Z,466.88
2018-04-22T12:24:55.836Z,523.13
2018-04-22T12:25:55.773Z,540.00
2018-04-22T12:26:55.712Z,4123.13
2018-04-22T12:27:55.651Z,4033.13
2018-04-22T12:28:55.604Z,4128.75
2018-04-22T12:29:55.528Z,4156.88
2018-04-22T12:30:55.485Z,1591.88
2018-04-22T12:31:55.470Z,686.25
2018-04-22T12:32:55.349Z,1462.50
2018-04-22T12:33:55.289Z,3825.00
2018-04-22T12:34:55.230Z,4331.25
2018-04-22T12:35:55.173Z,4938.75
2018-04-22T12:36:55.114Z,4972.50
2018-04-22T12:37:55.076Z,4280.63
2018-04-22T12:38:54.997Z,4173.75
2018-04-22T12:39:54.939Z,4095.00
2018-04-22T12:40:54.883Z,4353.75
2018-04-22T12:41:54.828Z,4511.25
2018-04-22T12:42:54.767Z,4021.88
2018-04-22T12:43:54.711Z,3262.50
2018-04-22T12:44:54.656Z,3346.88
2018-04-22T12:45:54.602Z,3588.75